sensor_id;sensor_type;location;lat;lon;timestamp;pressure;altitude;pressure_sealevel;temperature;humidity
11329;BME280;5719;42.714;23.732;2023-12-04T00:02:14;94861.66;;;-0.76;100.00
11329;BME280;5719;42.714;23.732;2023-12-04T00:04:41;94841.59;;;-0.86;100.00
11329;BME280;5719;42.714;23.732;2023-12-04T00:07:08;94854.00;;;-0.74;100.00
11329;BME280;5719;42.714;23.732;2023-12-04T00:09:34;94857.25;;;-0.69;100.00
11329;BME280;5719;42.714;23.732;2023-12-04T00:12:01;94850.31;;;-0.61;100.00
11329;BME280;5719;42.714;23.732;2023-12-04T00:14:28;94860.44;;;-0.60;100.00
11329;BME280;5719;42.714;23.732;2023-12-04T00:16:56;94852.72;;;-0.55;100.00
11329;BME280;5719;42.714;23.732;2023-12-04T00:19:23;94867.03;;;-0.53;100.00
11329;BME280;5719;42.714;23.732;2023-12-04T00:21:51;94862.00;;;-0.54;100.00
11329;BME280;5719;42.714;23.732;2023-12-04T00:24:17;94865.59;;;-0.63;100.00
11329;BME280;5719;42.714;23.732;2023-12-04T00:26:44;94865.53;;;-0.60;100.00
11329;BME280;5719;42.714;23.732;2023-12-04T00:29:11;94879.16;;;-0.65;100.00
11329;BME280;5719;42.714;23.732;2023-12-04T00:31:38;94874.06;;;-0.62;100.00
11329;BME280;5719;42.714;23.732;2023-12-04T00:34:06;94873.47;;;-0.73;100.00
11329;BME280;5719;42.714;23.732;2023-12-04T00:36:33;94879.91;;;-0.60;100.00
11329;BME280;5719;42.714;23.732;2023-12-04T00:38:59;94885.84;;;-0.61;100.00
11329;BME280;5719;42.714;23.732;2023-12-04T00:41:26;94891.41;;;-0.82;100.00
11329;BME280;5719;42.714;23.732;2023-12-04T00:43:53;94897.19;;;-0.76;100.00
11329;BME280;5719;42.714;23.732;2023-12-04T00:46:20;94893.00;;;-0.77;100.00
11329;BME280;5719;42.714;23.732;2023-12-04T00:48:46;94894.44;;;-0.67;100.00
11329;BME280;5719;42.714;23.732;2023-12-04T00:51:15;94900.53;;;-0.74;100.00
11329;BME280;5719;42.714;23.732;2023-12-04T00:53:42;94907.47;;;-0.82;100.00
11329;BME280;5719;42.714;23.732;2023-12-04T00:56:09;94907.50;;;-0.83;100.00
11329;BME280;5719;42.714;23.732;2023-12-04T00:58:38;94906.78;;;-0.90;100.00
11329;BME280;5719;42.714;23.732;2023-12-04T01:01:05;94915.28;;;-0.91;100.00
11329;BME280;5719;42.714;23.732;2023-12-04T01:03:32;94916.69;;;-0.78;100.00
11329;BME280;5719;42.714;23.732;2023-12-04T01:05:59;94913.56;;;-0.90;100.00
11329;BME280;5719;42.714;23.732;2023-12-04T01:08:27;94908.44;;;-0.87;100.00
11329;BME280;5719;42.714;23.732;2023-12-04T01:10:54;94915.84;;;-0.78;100.00
11329;BME280;5719;42.714;23.732;2023-12-04T01:13:21;94915.19;;;-0.86;100.00
11329;BME280;5719;42.714;23.732;2023-12-04T01:15:47;94910.25;;;-0.92;100.00
11329;BME280;5719;42.714;23.732;2023-12-04T01:18:14;94921.78;;;-0.79;100.00
11329;BME280;5719;42.714;23.732;2023-12-04T01:20:41;94915.09;;;-0.83;100.00
11329;BME280;5719;42.714;23.732;2023-12-04T01:23:08;94906.78;;;-0.90;100.00
11329;BME280;5719;42.714;23.732;2023-12-04T01:25:36;94912.56;;;-0.83;100.00
11329;BME280;5719;42.714;23.732;2023-12-04T01:28:03;94905.63;;;-0.75;100.00
11329;BME280;5719;42.714;23.732;2023-12-04T01:30:30;94907.09;;;-0.65;100.00
11329;BME280;5719;42.714;23.732;2023-12-04T01:32:56;94913.00;;;-0.63;100.00
11329;BME280;5719;42.714;23.732;2023-12-04T01:35:23;94912.66;;;-0.48;100.00
11329;BME280;5719;42.714;23.732;2023-12-04T01:37:49;94914.13;;;-0.39;100.00
11329;BME280;5719;42.714;23.732;2023-12-04T01:40:16;94912.22;;;-0.30;100.00
11329;BME280;5719;42.714;23.732;2023-12-04T01:42:44;94912.44;;;-0.39;100.00
11329;BME280;5719;42.714;23.732;2023-12-04T01:45:11;94885.75;;;-0.57;100.00
11329;BME280;5719;42.714;23.732;2023-12-04T01:47:38;94921.13;;;-0.49;100.00
11329;BME280;5719;42.714;23.732;2023-12-04T01:50:07;94916.91;;;-0.48;100.00
11329;BME280;5719;42.714;23.732;2023-12-04T01:52:34;94911.06;;;-0.52;100.00
11329;BME280;5719;42.714;23.732;2023-12-04T01:55:02;94918.75;;;-0.57;100.00
11329;BME280;5719;42.714;23.732;2023-12-04T01:57:29;94919.44;;;-0.50;100.00
11329;BME280;5719;42.714;23.732;2023-12-04T01:59:58;94914.66;;;-0.62;100.00
11329;BME280;5719;42.714;23.732;2023-12-04T02:02:25;94912.06;;;-0.61;100.00
11329;BME280;5719;42.714;23.732;2023-12-04T02:04:54;94918.84;;;-0.60;100.00
11329;BME280;5719;42.714;23.732;2023-12-04T02:07:21;94918.16;;;-0.68;100.00
11329;BME280;5719;42.714;23.732;2023-12-04T02:09:48;94908.84;;;-0.67;100.00
11329;BME280;5719;42.714;23.732;2023-12-04T02:12:15;94917.47;;;-0.74;100.00
11329;BME280;5719;42.714;23.732;2023-12-04T02:14:42;94919.94;;;-0.71;100.00
11329;BME280;5719;42.714;23.732;2023-12-04T02:17:11;94921.63;;;-0.70;100.00
11329;BME280;5719;42.714;23.732;2023-12-04T02:19:39;94931.88;;;-0.76;100.00
11329;BME280;5719;42.714;23.732;2023-12-04T02:22:06;94925.31;;;-0.86;100.00
11329;BME280;5719;42.714;23.732;2023-12-04T02:24:34;94918.00;;;-0.98;100.00
11329;BME280;5719;42.714;23.732;2023-12-04T02:27:07;94930.53;;;-0.92;100.00
11329;BME280;5719;42.714;23.732;2023-12-04T02:29:40;94924.72;;;-0.98;100.00
11329;BME280;5719;42.714;23.732;2023-12-04T02:32:11;94934.06;;;-1.00;100.00
11329;BME280;5719;42.714;23.732;2023-12-04T02:34:43;94929.84;;;-0.99;100.00
11329;BME280;5719;42.714;23.732;2023-12-04T02:37:12;94936.63;;;-1.00;100.00
11329;BME280;5719;42.714;23.732;2023-12-04T02:39:41;94933.88;;;-0.90;100.00
11329;BME280;5719;42.714;23.732;2023-12-04T02:42:08;94934.78;;;-0.93;100.00
11329;BME280;5719;42.714;23.732;2023-12-04T02:44:35;94935.78;;;-1.02;100.00
11329;BME280;5719;42.714;23.732;2023-12-04T02:47:02;94908.03;;;-1.09;100.00
11329;BME280;5719;42.714;23.732;2023-12-04T02:49:29;94932.41;;;-1.01;100.00
11329;BME280;5719;42.714;23.732;2023-12-04T02:51:55;94949.22;;;-0.96;100.00
11329;BME280;5719;42.714;23.732;2023-12-04T02:54:22;94943.56;;;-1.09;100.00
11329;BME280;5719;42.714;23.732;2023-12-04T03:00:22;94945.28;;;-1.10;100.00
11329;BME280;5719;42.714;23.732;2023-12-04T03:02:48;94956.09;;;-1.02;100.00
11329;BME280;5719;42.714;23.732;2023-12-04T03:05:15;94954.38;;;-1.00;100.00
11329;BME280;5719;42.714;23.732;2023-12-04T03:07:42;94956.34;;;-1.14;100.00
11329;BME280;5719;42.714;23.732;2023-12-04T03:10:09;94953.75;;;-1.12;100.00
11329;BME280;5719;42.714;23.732;2023-12-04T03:12:36;94959.50;;;-1.03;100.00
11329;BME280;5719;42.714;23.732;2023-12-04T03:15:03;94961.13;;;-0.98;100.00
11329;BME280;5719;42.714;23.732;2023-12-04T03:17:32;94952.63;;;-0.98;100.00
11329;BME280;5719;42.714;23.732;2023-12-04T03:19:58;94959.50;;;-1.03;100.00
11329;BME280;5719;42.714;23.732;2023-12-04T03:22:25;94956.09;;;-1.02;100.00
11329;BME280;5719;42.714;23.732;2023-12-04T03:24:52;94959.53;;;-1.04;100.00
11329;BME280;5719;42.714;23.732;2023-12-04T03:27:19;94962.00;;;-1.01;100.00
11329;BME280;5719;42.714;23.732;2023-12-04T03:29:45;94961.22;;;-1.05;100.00
11329;BME280;5719;42.714;23.732;2023-12-04T03:32:12;94962.34;;;-1.18;100.00
11329;BME280;5719;42.714;23.732;2023-12-04T03:34:40;94966.56;;;-1.18;100.00
11329;BME280;5719;42.714;23.732;2023-12-04T03:37:07;94969.13;;;-1.20;100.00
11329;BME280;5719;42.714;23.732;2023-12-04T03:39:34;94969.19;;;-1.21;100.00
11329;BME280;5719;42.714;23.732;2023-12-04T03:42:00;94965.28;;;-1.39;100.00
11329;BME280;5719;42.714;23.732;2023-12-04T03:44:28;94964.59;;;-1.47;100.00
11329;BME280;5719;42.714;23.732;2023-12-04T03:46:54;94974.94;;;-1.59;100.00
11329;BME280;5719;42.714;23.732;2023-12-04T03:49:21;94969.91;;;-1.61;100.00
11329;BME280;5719;42.714;23.732;2023-12-04T03:51:49;94976.47;;;-1.51;100.00
11329;BME280;5719;42.714;23.732;2023-12-04T03:54:16;94980.00;;;-1.59;100.00
11329;BME280;5719;42.714;23.732;2023-12-04T03:56:43;94980.84;;;-1.60;100.00
11329;BME280;5719;42.714;23.732;2023-12-04T03:59:10;94980.00;;;-1.58;100.00
11329;BME280;5719;42.714;23.732;2023-12-04T04:01:37;94986.88;;;-1.66;100.00
11329;BME280;5719;42.714;23.732;2023-12-04T04:04:04;94991.00;;;-1.60;100.00
11329;BME280;5719;42.714;23.732;2023-12-04T04:06:30;94987.69;;;-1.64;100.00
11329;BME280;5719;42.714;23.732;2023-12-04T04:08:58;94984.94;;;-1.50;100.00
11329;BME280;5719;42.714;23.732;2023-12-04T04:11:25;94985.56;;;-1.39;100.00
11329;BME280;5719;42.714;23.732;2023-12-04T04:13:52;94986.69;;;-1.55;100.00
11329;BME280;5719;42.714;23.732;2023-12-04T04:16:19;94990.66;;;-1.42;100.00
11329;BME280;5719;42.714;23.732;2023-12-04T04:18:46;94997.50;;;-1.45;100.00
11329;BME280;5719;42.714;23.732;2023-12-04T04:21:12;94996.44;;;-1.34;100.00
11329;BME280;5719;42.714;23.732;2023-12-04T04:23:39;95009.03;;;-1.28;100.00
11329;BME280;5719;42.714;23.732;2023-12-04T04:26:08;95007.50;;;-1.36;100.00
11329;BME280;5719;42.714;23.732;2023-12-04T04:28:34;95006.72;;;-1.41;100.00
11329;BME280;5719;42.714;23.732;2023-12-04T04:31:01;95004.19;;;-1.40;100.00
11329;BME280;5719;42.714;23.732;2023-12-04T04:33:28;95003.22;;;-1.34;100.00
11329;BME280;5719;42.714;23.732;2023-12-04T04:35:55;95001.47;;;-1.31;100.00
11329;BME280;5719;42.714;23.732;2023-12-04T04:38:22;94999.16;;;-1.43;100.00
11329;BME280;5719;42.714;23.732;2023-12-04T04:40:48;95011.38;;;-1.65;100.00
11329;BME280;5719;42.714;23.732;2023-12-04T04:43:17;95017.16;;;-1.58;100.00
11329;BME280;5719;42.714;23.732;2023-12-04T04:45:45;95013.69;;;-1.53;100.00
11329;BME280;5719;42.714;23.732;2023-12-04T04:48:11;95017.09;;;-1.54;100.00
11329;BME280;5719;42.714;23.732;2023-12-04T04:50:38;95021.09;;;-1.42;100.00
11329;BME280;5719;42.714;23.732;2023-12-04T04:53:05;95025.84;;;-1.24;100.00
11329;BME280;5719;42.714;23.732;2023-12-04T04:55:32;95025.56;;;-1.55;100.00
11329;BME280;5719;42.714;23.732;2023-12-04T04:57:59;95025.69;;;-1.64;100.00
11329;BME280;5719;42.714;23.732;2023-12-04T05:00:27;95030.69;;;-1.59;100.00
11329;BME280;5719;42.714;23.732;2023-12-04T05:02:54;95029.84;;;-1.58;100.00
11329;BME280;5719;42.714;23.732;2023-12-04T05:05:21;95027.31;;;-1.60;100.00
11329;BME280;5719;42.714;23.732;2023-12-04T05:07:48;95027.50;;;-1.69;100.00
11329;BME280;5719;42.714;23.732;2023-12-04T05:10:15;95030.88;;;-1.70;100.00
11329;BME280;5719;42.714;23.732;2023-12-04T05:12:41;95027.41;;;-1.64;100.00
11329;BME280;5719;42.714;23.732;2023-12-04T05:15:09;95036.47;;;-1.50;100.00
11329;BME280;5719;42.714;23.732;2023-12-04T05:17:37;95036.47;;;-1.51;100.00
11329;BME280;5719;42.714;23.732;2023-12-04T05:20:05;95044.31;;;-1.65;100.00
11329;BME280;5719;42.714;23.732;2023-12-04T05:22:34;95037.50;;;-1.61;100.00
11329;BME280;5719;42.714;23.732;2023-12-04T05:25:01;95046.88;;;-1.66;100.00
11329;BME280;5719;42.714;23.732;2023-12-04T05:27:27;95044.34;;;-1.66;100.00
11329;BME280;5719;42.714;23.732;2023-12-04T05:29:54;95046.19;;;-1.76;100.00
11329;BME280;5719;42.714;23.732;2023-12-04T05:32:21;95045.97;;;-1.64;100.00
11329;BME280;5719;42.714;23.732;2023-12-04T05:34:49;95051.91;;;-1.14;100.00
11329;BME280;5719;42.714;23.732;2023-12-04T05:37:16;95058.19;;;-1.35;100.00
11329;BME280;5719;42.714;23.732;2023-12-04T05:39:43;95047.41;;;-1.48;100.00
11329;BME280;5719;42.714;23.732;2023-12-04T05:42:10;95055.81;;;-1.45;100.00
11329;BME280;5719;42.714;23.732;2023-12-04T05:44:36;95062.63;;;-1.48;100.00
11329;BME280;5719;42.714;23.732;2023-12-04T05:47:04;95070.03;;;-1.37;100.00
11329;BME280;5719;42.714;23.732;2023-12-04T05:49:30;95059.19;;;-1.43;100.00
11329;BME280;5719;42.714;23.732;2023-12-04T05:52:00;95063.47;;;-1.49;100.00
11329;BME280;5719;42.714;23.732;2023-12-04T05:54:26;95068.47;;;-1.44;100.00
11329;BME280;5719;42.714;23.732;2023-12-04T05:56:53;95072.94;;;-1.60;100.00
11329;BME280;5719;42.714;23.732;2023-12-04T05:59:20;95070.53;;;-1.67;100.00
11329;BME280;5719;42.714;23.732;2023-12-04T06:01:47;95074.91;;;-1.77;100.00
11329;BME280;5719;42.714;23.732;2023-12-04T06:04:13;95082.28;;;-1.62;100.00
11329;BME280;5719;42.714;23.732;2023-12-04T06:06:40;95082.34;;;-1.65;100.00
11329;BME280;5719;42.714;23.732;2023-12-04T06:09:08;95085.06;;;-1.77;100.00
11329;BME280;5719;42.714;23.732;2023-12-04T06:11:35;95087.75;;;-1.87;100.00
11329;BME280;5719;42.714;23.732;2023-12-04T06:14:02;95082.72;;;-1.90;100.00
11329;BME280;5719;42.714;23.732;2023-12-04T06:16:29;95083.56;;;-1.90;100.00
11329;BME280;5719;42.714;23.732;2023-12-04T06:18:55;95089.31;;;-1.80;100.00
11329;BME280;5719;42.714;23.732;2023-12-04T06:21:22;95099.34;;;-1.73;100.00
11329;BME280;5719;42.714;23.732;2023-12-04T06:23:50;95104.25;;;-1.62;100.00
11329;BME280;5719;42.714;23.732;2023-12-04T06:26:18;95098.50;;;-1.72;100.00
11329;BME280;5719;42.714;23.732;2023-12-04T06:28:46;95102.63;;;-1.66;100.00
11329;BME280;5719;42.714;23.732;2023-12-04T06:31:13;95103.25;;;-1.51;100.00
11329;BME280;5719;42.714;23.732;2023-12-04T06:33:41;95102.22;;;-1.42;100.00
11329;BME280;5719;42.714;23.732;2023-12-04T06:36:09;95103.41;;;-0.63;100.00
11329;BME280;5719;42.714;23.732;2023-12-04T06:38:40;95103.31;;;-0.59;100.00
11329;BME280;5719;42.714;23.732;2023-12-04T06:41:08;95091.66;;;-1.15;100.00
11329;BME280;5719;42.714;23.732;2023-12-04T06:43:37;95100.88;;;-1.12;100.00
11329;BME280;5719;42.714;23.732;2023-12-04T06:46:05;95106.44;;;-1.41;100.00
11329;BME280;5719;42.714;23.732;2023-12-04T06:48:33;95114.16;;;-1.47;100.00
11329;BME280;5719;42.714;23.732;2023-12-04T06:51:00;95115.25;;;-1.63;100.00
11329;BME280;5719;42.714;23.732;2023-12-04T06:53:27;95124.13;;;-1.35;100.00
11329;BME280;5719;42.714;23.732;2023-12-04T06:55:57;95118.63;;;-1.61;100.00
11329;BME280;5719;42.714;23.732;2023-12-04T06:58:23;95123.88;;;-1.75;100.00
11329;BME280;5719;42.714;23.732;2023-12-04T07:00:51;95127.00;;;-1.58;100.00
11329;BME280;5719;42.714;23.732;2023-12-04T07:03:18;95130.91;;;-1.37;100.00
11329;BME280;5719;42.714;23.732;2023-12-04T07:05:45;95131.63;;;-1.29;100.00
11329;BME280;5719;42.714;23.732;2023-12-04T07:08:12;95140.69;;;-1.16;100.00
11329;BME280;5719;42.714;23.732;2023-12-04T07:10:39;95144.84;;;-1.12;100.00
11329;BME280;5719;42.714;23.732;2023-12-04T07:13:06;95156.78;;;-1.17;99.95
11329;BME280;5719;42.714;23.732;2023-12-04T07:15:32;95154.09;;;-1.06;100.00
11329;BME280;5719;42.714;23.732;2023-12-04T07:18:01;95156.19;;;-1.32;100.00
11329;BME280;5719;42.714;23.732;2023-12-04T07:20:27;95151.84;;;-1.24;100.00
11329;BME280;5719;42.714;23.732;2023-12-04T07:22:54;95151.97;;;-1.33;99.48
11329;BME280;5719;42.714;23.732;2023-12-04T07:25:23;95157.16;;;-1.39;99.96
11329;BME280;5719;42.714;23.732;2023-12-04T07:27:50;95156.44;;;-1.49;100.00
11329;BME280;5719;42.714;23.732;2023-12-04T07:30:17;95150.34;;;-1.37;100.00
11329;BME280;5719;42.714;23.732;2023-12-04T07:32:44;95158.56;;;-1.22;99.96
11329;BME280;5719;42.714;23.732;2023-12-04T07:35:15;95155.38;;;-1.34;99.44
11329;BME280;5719;42.714;23.732;2023-12-04T07:37:43;95150.34;;;-1.37;99.50
11329;BME280;5719;42.714;23.732;2023-12-04T07:40:10;95149.66;;;-1.47;99.03
11329;BME280;5719;42.714;23.732;2023-12-04T07:42:37;95162.75;;;-1.19;99.96
11329;BME280;5719;42.714;23.732;2023-12-04T07:45:06;95159.94;;;-1.03;99.57
11329;BME280;5719;42.714;23.732;2023-12-04T07:47:33;95173.19;;;-0.85;98.59
11329;BME280;5719;42.714;23.732;2023-12-04T07:50:00;95171.50;;;-0.86;95.19
11329;BME280;5719;42.714;23.732;2023-12-04T07:52:30;95174.53;;;-0.66;95.17
11329;BME280;5719;42.714;23.732;2023-12-04T07:54:56;95169.97;;;-0.49;97.12
11329;BME280;5719;42.714;23.732;2023-12-04T07:57:23;95171.25;;;-0.73;95.10
11329;BME280;5719;42.714;23.732;2023-12-04T07:59:50;95170.97;;;-1.05;96.06
11329;BME280;5719;42.714;23.732;2023-12-04T08:02:17;95157.19;;;-0.90;96.94
11329;BME280;5719;42.714;23.732;2023-12-04T08:04:44;95164.22;;;-1.06;97.15
11329;BME280;5719;42.714;23.732;2023-12-04T08:07:11;95162.50;;;-1.04;97.61
11329;BME280;5719;42.714;23.732;2023-12-04T08:09:39;95153.97;;;-0.98;98.18
11329;BME280;5719;42.714;23.732;2023-12-04T08:12:06;95151.19;;;-0.86;96.04
11329;BME280;5719;42.714;23.732;2023-12-04T08:14:34;95169.75;;;-0.83;95.17
11329;BME280;5719;42.714;23.732;2023-12-04T08:17:01;95167.25;;;-0.86;98.60
11329;BME280;5719;42.714;23.732;2023-12-04T08:19:28;95164.41;;;-0.69;94.70
11329;BME280;5719;42.714;23.732;2023-12-04T08:21:54;95172.84;;;-0.67;94.60
11329;BME280;5719;42.714;23.732;2023-12-04T08:24:22;95171.56;;;-0.43;94.36
11329;BME280;5719;42.714;23.732;2023-12-04T08:26:50;95167.06;;;-0.75;93.45
11329;BME280;5719;42.714;23.732;2023-12-04T08:29:17;95174.09;;;-0.42;95.14
11329;BME280;5719;42.714;23.732;2023-12-04T08:31:44;95181.53;;;-0.33;92.48
11329;BME280;5719;42.714;23.732;2023-12-04T08:34:10;95176.03;;;-0.12;91.34
11329;BME280;5719;42.714;23.732;2023-12-04T08:36:37;95175.66;;;-0.36;92.68
11329;BME280;5719;42.714;23.732;2023-12-04T08:39:04;95181.47;;;-0.30;93.54
11329;BME280;5719;42.714;23.732;2023-12-04T08:41:32;95177.38;;;-0.37;92.78
11329;BME280;5719;42.714;23.732;2023-12-04T08:44:00;95186.63;;;-0.33;92.82
11329;BME280;5719;42.714;23.732;2023-12-04T08:46:27;95175.50;;;-0.29;93.32
11329;BME280;5719;42.714;23.732;2023-12-04T08:48:54;95180.38;;;-0.18;91.42
11329;BME280;5719;42.714;23.732;2023-12-04T08:51:21;95177.16;;;0.17;92.62
11329;BME280;5719;42.714;23.732;2023-12-04T08:53:47;95181.34;;;0.58;88.84
11329;BME280;5719;42.714;23.732;2023-12-04T08:56:14;95179.47;;;0.27;87.66
11329;BME280;5719;42.714;23.732;2023-12-04T08:58:41;95167.97;;;0.10;88.61
11329;BME280;5719;42.714;23.732;2023-12-04T09:01:09;95168.13;;;0.42;89.63
11329;BME280;5719;42.714;23.732;2023-12-04T09:03:36;95163.50;;;0.59;89.49
11329;BME280;5719;42.714;23.732;2023-12-04T09:06:04;95165.53;;;0.80;87.90
11329;BME280;5719;42.714;23.732;2023-12-04T09:08:31;95171.28;;;0.88;84.52
11329;BME280;5719;42.714;23.732;2023-12-04T09:10:58;95167.03;;;0.54;85.74
11329;BME280;5719;42.714;23.732;2023-12-04T09:13:25;95162.44;;;0.69;88.34
11329;BME280;5719;42.714;23.732;2023-12-04T09:15:51;95168.78;;;1.21;87.53
11329;BME280;5719;42.714;23.732;2023-12-04T09:18:20;95163.78;;;1.50;84.34
11329;BME280;5719;42.714;23.732;2023-12-04T09:20:46;95158.81;;;1.78;84.02
11329;BME280;5719;42.714;23.732;2023-12-04T09:23:13;95154.91;;;1.34;85.98
11329;BME280;5719;42.714;23.732;2023-12-04T09:25:40;95147.59;;;1.83;84.02
11329;BME280;5719;42.714;23.732;2023-12-04T09:28:07;95147.75;;;2.08;82.03
11329;BME280;5719;42.714;23.732;2023-12-04T09:30:35;95149.50;;;2.35;80.02
11329;BME280;5719;42.714;23.732;2023-12-04T09:33:03;95135.38;;;2.25;77.96
11329;BME280;5719;42.714;23.732;2023-12-04T09:35:31;95134.69;;;2.19;78.06
11329;BME280;5719;42.714;23.732;2023-12-04T09:37:58;95146.56;;;2.20;80.57
11329;BME280;5719;42.714;23.732;2023-12-04T09:40:25;95137.31;;;2.73;77.24
11329;BME280;5719;42.714;23.732;2023-12-04T09:42:52;95128.59;;;3.31;78.47
11329;BME280;5719;42.714;23.732;2023-12-04T09:45:19;95122.16;;;3.69;70.97
11329;BME280;5719;42.714;23.732;2023-12-04T09:47:47;95129.38;;;4.51;71.41
11329;BME280;5719;42.714;23.732;2023-12-04T09:50:16;95133.91;;;5.29;65.47
11329;BME280;5719;42.714;23.732;2023-12-04T09:52:48;95128.97;;;6.62;65.34
11329;BME280;5719;42.714;23.732;2023-12-04T09:55:15;95107.75;;;7.11;58.64
11329;BME280;5719;42.714;23.732;2023-12-04T09:57:43;95130.16;;;7.09;56.40
11329;BME280;5719;42.714;23.732;2023-12-04T10:00:11;95125.56;;;7.67;57.42
11329;BME280;5719;42.714;23.732;2023-12-04T10:02:40;95108.06;;;8.07;55.18
11329;BME280;5719;42.714;23.732;2023-12-04T10:05:07;95115.84;;;8.22;54.41
11329;BME280;5719;42.714;23.732;2023-12-04T10:07:34;95115.78;;;8.07;53.16
11329;BME280;5719;42.714;23.732;2023-12-04T10:10:03;95105.00;;;8.49;54.53
11329;BME280;5719;42.714;23.732;2023-12-04T10:12:31;95104.28;;;9.08;50.88
11329;BME280;5719;42.714;23.732;2023-12-04T10:15:06;95097.25;;;8.96;50.52
11329;BME280;5719;42.714;23.732;2023-12-04T10:17:54;95091.94;;;8.67;51.95
11329;BME280;5719;42.714;23.732;2023-12-04T10:20:21;95095.41;;;8.19;54.26
11329;BME280;5719;42.714;23.732;2023-12-04T10:22:53;95095.19;;;8.40;53.37
11329;BME280;5719;42.714;23.732;2023-12-04T10:25:22;95097.97;;;9.43;51.53
11329;BME280;5719;42.714;23.732;2023-12-04T10:27:51;95094.59;;;10.29;49.23
11329;BME280;5719;42.714;23.732;2023-12-04T10:30:25;95096.97;;;10.18;47.30
11329;BME280;5719;42.714;23.732;2023-12-04T10:36:13;95090.84;;;11.15;46.05
11329;BME280;5719;42.714;23.732;2023-12-04T10:38:40;95086.28;;;11.45;45.79
11329;BME280;5719;42.714;23.732;2023-12-04T10:41:13;95087.84;;;10.12;46.41
11329;BME280;5719;42.714;23.732;2023-12-04T10:43:46;95086.47;;;10.21;46.20
11329;BME280;5719;42.714;23.732;2023-12-04T10:46:14;95092.88;;;10.14;45.97
11329;BME280;5719;42.714;23.732;2023-12-04T10:48:43;95083.84;;;11.17;44.48
11329;BME280;5719;42.714;23.732;2023-12-04T10:51:12;95079.13;;;11.36;43.91
11329;BME280;5719;42.714;23.732;2023-12-04T10:53:39;95074.47;;;11.41;44.89
11329;BME280;5719;42.714;23.732;2023-12-04T10:56:08;95080.59;;;11.40;43.38
11329;BME280;5719;42.714;23.732;2023-12-04T10:58:38;95072.22;;;11.10;44.67
11329;BME280;5719;42.714;23.732;2023-12-04T11:01:07;95086.75;;;10.71;46.50
11329;BME280;5719;42.714;23.732;2023-12-04T11:03:40;95075.31;;;11.02;44.62
11329;BME280;5719;42.714;23.732;2023-12-04T11:06:10;95073.38;;;11.58;43.75
11329;BME280;5719;42.714;23.732;2023-12-04T11:08:41;95076.81;;;12.34;42.77
11329;BME280;5719;42.714;23.732;2023-12-04T11:11:13;95075.03;;;12.84;41.89
11329;BME280;5719;42.714;23.732;2023-12-04T11:13:46;95076.81;;;13.31;40.93
11329;BME280;5719;42.714;23.732;2023-12-04T11:16:18;95072.63;;;11.43;43.32
11329;BME280;5719;42.714;23.732;2023-12-04T11:18:51;95082.44;;;12.77;41.61
11329;BME280;5719;42.714;23.732;2023-12-04T11:21:20;95070.75;;;13.43;40.17
11329;BME280;5719;42.714;23.732;2023-12-04T11:23:47;95073.25;;;13.20;39.90
11329;BME280;5719;42.714;23.732;2023-12-04T11:26:15;95070.13;;;13.74;39.96
11329;BME280;5719;42.714;23.732;2023-12-04T11:28:44;95066.81;;;13.72;39.60
11329;BME280;5719;42.714;23.732;2023-12-04T11:31:12;95064.44;;;14.37;39.13
11329;BME280;5719;42.714;23.732;2023-12-04T11:33:40;95068.66;;;14.05;39.28
11329;BME280;5719;42.714;23.732;2023-12-04T11:36:11;95065.03;;;13.38;40.89
11329;BME280;5719;42.714;23.732;2023-12-04T11:38:44;95054.09;;;13.91;39.06
11329;BME280;5719;42.714;23.732;2023-12-04T11:41:15;95051.16;;;14.18;38.32
11329;BME280;5719;42.714;23.732;2023-12-04T11:43:45;95028.38;;;12.95;40.47
11329;BME280;5719;42.714;23.732;2023-12-04T11:46:13;95041.72;;;14.17;39.12
11329;BME280;5719;42.714;23.732;2023-12-04T11:48:45;95049.38;;;14.85;37.37
11329;BME280;5719;42.714;23.732;2023-12-04T11:51:15;95048.72;;;13.24;40.32
11329;BME280;5719;42.714;23.732;2023-12-04T11:54:02;95054.59;;;14.18;39.37
11329;BME280;5719;42.714;23.732;2023-12-04T11:56:30;95042.84;;;13.34;39.90
11329;BME280;5719;42.714;23.732;2023-12-04T11:59:03;95036.28;;;14.31;38.43
11329;BME280;5719;42.714;23.732;2023-12-04T12:01:33;95035.34;;;14.97;37.66
11329;BME280;5719;42.714;23.732;2023-12-04T12:07:28;95021.13;;;14.58;37.54
11329;BME280;5719;42.714;23.732;2023-12-04T12:09:55;95034.38;;;14.55;38.16
11329;BME280;5719;42.714;23.732;2023-12-04T12:12:25;95019.81;;;14.75;37.69
11329;BME280;5719;42.714;23.732;2023-12-04T12:14:54;94994.66;;;14.96;37.52
11329;BME280;5719;42.714;23.732;2023-12-04T12:17:21;95023.38;;;16.00;36.31
11329;BME280;5719;42.714;23.732;2023-12-04T12:19:48;95018.91;;;15.60;37.20
11329;BME280;5719;42.714;23.732;2023-12-04T12:22:14;95020.59;;;15.71;35.67
11329;BME280;5719;42.714;23.732;2023-12-04T12:24:41;95013.66;;;15.81;35.78
11329;BME280;5719;42.714;23.732;2023-12-04T12:27:08;95011.75;;;16.34;35.59
11329;BME280;5719;42.714;23.732;2023-12-04T12:46:25;94994.31;;;16.04;35.80
11329;BME280;5719;42.714;23.732;2023-12-04T12:48:52;94991.88;;;16.52;35.35
11329;BME280;5719;42.714;23.732;2023-12-04T12:51:20;94998.03;;;16.82;34.85
11329;BME280;5719;42.714;23.732;2023-12-04T12:53:47;94986.66;;;17.11;34.54
11329;BME280;5719;42.714;23.732;2023-12-04T12:56:14;94997.09;;;17.11;34.16
11329;BME280;5719;42.714;23.732;2023-12-04T12:58:41;94995.34;;;16.62;34.34
11329;BME280;5719;42.714;23.732;2023-12-04T13:01:09;94992.13;;;16.89;34.33
11329;BME280;5719;42.714;23.732;2023-12-04T13:03:38;94995.31;;;17.12;33.96
11329;BME280;5719;42.714;23.732;2023-12-04T13:06:05;94983.72;;;16.86;34.13
11329;BME280;5719;42.714;23.732;2023-12-04T13:08:32;94989.09;;;17.32;33.71
11329;BME280;5719;42.714;23.732;2023-12-04T13:10:59;94998.84;;;17.49;33.37
11329;BME280;5719;42.714;23.732;2023-12-04T13:13:25;94984.41;;;17.64;32.96
11329;BME280;5719;42.714;23.732;2023-12-04T13:15:53;94982.47;;;17.76;33.36
11329;BME280;5719;42.714;23.732;2023-12-04T13:18:21;94983.69;;;17.82;32.87
11329;BME280;5719;42.714;23.732;2023-12-04T13:20:49;94984.16;;;17.48;33.32
11329;BME280;5719;42.714;23.732;2023-12-04T13:23:16;94970.13;;;17.21;33.27
11329;BME280;5719;42.714;23.732;2023-12-04T13:25:42;94992.56;;;17.33;33.69